Estherville, IA

6:58 AM CDT on June 03, 2015 (GMT -0500)
Spencer Municipal | | Change Station
CLOSE
Current Station
Airport
Location: Spencer,
Elevation: 1339 ft
Nearby Weather Stations

Elev 1339 ft 43.17 °N, 95.20 °W | Updated 23 minutes ago

Mostly Cloudy
Mostly Cloudy
61 °F
Feels Like 61 °F
N
9
Wind Variable Wind from ESE

Today
High -- | Low -- °F
--% Chance of Precip.
Yesterday
High -- | Low -- °F
Precip. -- in
5:40 AM 8:54 PM
Full, 99% visible
Pressure 29.83 in
Visibility 10.0 miles
Clouds Mostly Cloudy 1700 ft
Dew Point 59 °F
Humidity 93%
Rainfall 0.05 in
Snow Depth Not available.
UV 0 out of 12
Pollen 4.20 out of 12
Air Quality Not available.
Flu Activity No Activity
SPECI KSPW 031135Z AUTO 12008KT 10SM BKN017 16/15 A2983 RMK AO2 RAB1059E27 P0000 T01610150 TSNO

More Conditions Fewer Conditions

Pressure 29.83 in
Visibility 10.0 miles
Clouds Mostly Cloudy 1700 ft
Dew Point 59 °F
Humidity 93%
Rainfall 0.05 in
Snow Depth Not available.
UV 0 out of 12
Pollen 4.20 out of 12
Air Quality Not available.
Flu Activity No Activity
SPECI KSPW 031135Z AUTO 12008KT 10SM BKN017 16/15 A2983 RMK AO2 RAB1059E27 P0000 T01610150 TSNO

More Conditions Fewer Conditions

10-Day Weather Forecast

×

Almanac

Astronomy

Jun. 03, 2015 Rise Set
Actual Time
Civil Twilight
Nautical Twilight
Astronomical Twilight
Moon
Length of Visible Light
Length of Day
Tomorrow will be .
, % of the Moon is Illuminated

Today's Extremes

State Highs State Lows

Community

WunderPhotos

Upload Photos

1,826,205 photos uploaded!

WunderBlogs® & News

Nearby

Air Quality

  Air Quality AQ Index Pollutant
Not available.

Snow Depth

Station Depth Elevation

Earthquake Activity

City Distance Mag. Time & Date
Minimum magnitude displayed is 2.5.

Coastal Water Temperatures

Place Temperature

Stations

Nearby Weather Stations

Station Location Temp. Windchill Dew Point Humidity Wind Precip. Elev Updated Type